Time;durP1;ratioP1;P1;durP2;ratioP2;P2;SDS_P1;SDS_P2;PMS_P1;PMS_P2;Temp;Humidity;BMP_temperature;BMP_pressure;BME280_temperature;BME280_humidity;BME280_pressure;Samples;Min_cycle;Max_cycle;Signal;HPM_P1;HPM_P2
2021/07/14 00:02:25;;;;;;;20.90;8.63;;;;;;;18.24;100.00;97138.38;4974038;28;20579;-81
2021/07/14 00:04:52;;;;;;;16.92;9.07;;;;;;;18.23;100.00;97131.31;4971053;28;20129;-81
2021/07/14 00:07:18;;;;;;;19.80;9.27;;;;;;;18.22;100.00;97142.66;4972377;28;20047;-83
2021/07/14 00:09:45;;;;;;;17.63;8.73;;;;;;;18.27;100.00;97145.06;4971624;28;20431;-80
2021/07/14 00:12:13;;;;;;;16.33;8.50;;;;;;;18.17;100.00;97149.25;4979790;28;20054;-81
2021/07/14 00:22:05;;;;;;;12.68;8.05;;;;;;;18.09;100.00;97139.41;4914232;29;20096;-81
2021/07/14 00:23:19;;;;;;;16.75;8.20;;;;;;;18.02;100.00;97125.59;4971416;28;20050;-83
2021/07/14 00:25:46;;;;;;;18.15;7.25;;;;;;;18.02;100.00;97128.34;4971979;28;20536;-82
2021/07/14 00:28:13;;;;;;;14.00;7.72;;;;;;;17.97;100.00;97126.75;4972826;28;20125;-83
2021/07/14 00:30:40;;;;;;;9.10;6.60;;;;;;;17.96;100.00;97116.94;4975671;28;20046;-81
2021/07/14 00:33:07;;;;;;;12.40;6.80;;;;;;;17.95;100.00;97114.59;4976544;28;20153;-82
2021/07/14 00:35:34;;;;;;;17.60;7.00;;;;;;;17.89;100.00;97110.59;4977813;28;20093;-79
2021/07/14 00:38:00;;;;;;;12.63;6.72;;;;;;;17.86;100.00;97116.84;4978255;28;20290;-82
2021/07/14 00:40:27;;;;;;;14.07;6.47;;;;;;;17.83;100.00;97115.63;4978620;28;20518;-84
2021/07/14 00:42:54;;;;;;;16.85;6.60;;;;;;;17.81;100.00;97117.16;4978682;28;20050;-81
2021/07/14 00:45:20;;;;;;;10.82;5.70;;;;;;;17.85;100.00;97121.53;4977312;28;20054;-82
2021/07/14 00:47:50;;;;;;;14.70;6.05;;;;;;;17.81;100.00;97122.63;4977409;28;20301;-81
2021/07/14 00:50:18;;;;;;;13.60;6.13;;;;;;;17.80;100.00;97110.91;4976231;28;20039;-81
2021/07/14 00:52:45;;;;;;;10.32;5.65;;;;;;;17.77;100.00;97110.88;4975251;28;20435;-82
2021/07/14 00:55:11;;;;;;;16.23;5.80;;;;;;;17.71;100.00;97109.59;4974782;28;20052;-82
2021/07/14 00:57:38;;;;;;;10.18;5.28;;;;;;;17.68;100.00;97116.63;4976829;28;20047;-82
2021/07/14 01:00:10;;;;;;;13.00;4.93;;;;;;;17.72;100.00;97116.66;4976414;28;20047;-82
2021/07/14 01:02:38;;;;;;;12.27;4.65;;;;;;;17.66;100.00;97110.75;4991694;28;20063;-82
2021/07/14 01:05:18;;;;;;;11.32;4.70;;;;;;;17.65;100.00;97111.13;4976012;28;20057;-84
2021/07/14 01:07:58;;;;;;;12.75;4.38;;;;;;;17.60;100.00;97108.72;4976770;28;20574;-81
2021/07/14 01:10:30;;;;;;;12.68;4.00;;;;;;;17.56;100.00;97110.59;4976112;28;20573;-81
2021/07/14 01:13:21;;;;;;;10.68;4.70;;;;;;;17.51;100.00;97111.69;4976364;28;20098;-81
2021/07/14 01:15:56;;;;;;;9.52;4.43;;;;;;;17.55;100.00;97120.00;4976942;28;20506;-81
2021/07/14 01:18:33;;;;;;;7.88;4.15;;;;;;;17.51;100.00;97100.75;4975117;28;20054;-81
2021/07/14 01:21:18;;;;;;;10.45;4.13;;;;;;;17.49;100.00;97105.81;4975556;28;20446;-83
2021/07/14 01:23:52;;;;;;;12.75;4.15;;;;;;;17.46;100.00;97101.09;4974681;28;20484;-81
2021/07/14 01:26:52;;;;;;;11.45;4.20;;;;;;;17.38;100.00;97116.63;4991017;28;20558;-83
2021/07/14 01:29:22;;;;;;;7.28;3.97;;;;;;;17.25;100.00;97109.81;4976425;28;20275;-84
2021/07/14 01:31:50;;;;;;;7.72;3.55;;;;;;;17.21;100.00;97111.72;4991749;28;20055;-83
2021/07/14 01:34:20;;;;;;;12.57;3.80;;;;;;;17.24;100.00;97115.66;4976003;28;20546;-84
2021/07/14 01:36:50;;;;;;;14.43;3.63;;;;;;;17.21;100.00;97122.66;4975522;28;20113;-84
2021/07/14 01:39:18;;;;;;;14.45;3.63;;;;;;;17.23;100.00;97109.41;4977421;28;20059;-83
2021/07/14 01:41:48;;;;;;;11.05;4.00;;;;;;;17.26;100.00;97096.91;4978040;28;20341;-84
2021/07/14 01:44:18;;;;;;;12.45;3.63;;;;;;;17.27;100.00;97088.34;4979054;28;20545;-84
2021/07/14 01:46:46;;;;;;;6.28;3.10;;;;;;;17.37;100.00;97087.69;4981294;28;20051;-85
2021/07/14 01:49:17;;;;;;;6.45;2.85;;;;;;;17.40;100.00;97089.66;4984512;28;20411;-83
2021/07/14 01:51:50;;;;;;;6.50;2.67;;;;;;;17.43;100.00;97083.47;4989929;28;20047;-83
2021/07/14 01:54:22;;;;;;;10.00;2.45;;;;;;;17.42;100.00;97103.75;4976542;28;20051;-83
2021/07/14 01:56:51;;;;;;;4.03;2.55;;;;;;;17.37;100.00;97101.34;4976018;28;20047;-82
2021/07/14 01:59:19;;;;;;;10.88;2.65;;;;;;;17.35;100.00;97091.94;4977228;28;20057;-83
2021/07/14 02:01:46;;;;;;;8.35;2.70;;;;;;;17.32;100.00;97088.00;4976010;28;20101;-83
2021/07/14 02:04:31;;;;;;;10.07;2.53;;;;;;;17.30;100.00;97093.06;4973514;28;20045;-82
2021/07/14 02:07:06;;;;;;;3.83;2.33;;;;;;;17.25;100.00;97100.81;4974581;28;20047;-80
2021/07/14 02:09:35;;;;;;;7.28;2.33;;;;;;;17.23;100.00;97092.19;4973926;28;20038;-82
2021/07/14 02:12:06;;;;;;;6.30;2.67;;;;;;;17.19;100.00;97105.00;4974521;28;20098;-83
2021/07/14 02:14:38;;;;;;;7.88;2.58;;;;;;;17.09;100.00;97098.25;4973337;28;20042;-82
2021/07/14 02:17:13;;;;;;;9.65;2.40;;;;;;;17.06;100.00;97098.22;4975234;28;20101;-81
2021/07/14 02:19:44;;;;;;;4.03;2.42;;;;;;;17.04;100.00;97105.97;4974226;28;20086;-81
2021/07/14 02:22:11;;;;;;;8.48;2.38;;;;;;;17.06;100.00;97107.19;4980576;28;20053;-79
2021/07/14 02:24:38;;;;;;;7.60;2.70;;;;;;;17.04;100.00;97100.50;4981124;28;20061;-82
2021/07/14 02:27:10;;;;;;;9.30;2.42;;;;;;;16.95;100.00;97092.59;4982268;28;20083;-80
2021/07/14 02:29:39;;;;;;;13.50;2.33;;;;;;;16.86;100.00;97119.41;4976484;28;20043;-82
2021/07/14 02:32:08;;;;;;;10.65;2.33;;;;;;;16.80;100.00;97124.38;4974499;28;20407;-81
2021/07/14 02:34:35;;;;;;;9.25;2.53;;;;;;;16.83;100.00;97114.66;4976981;28;20042;-80
2021/07/14 02:37:05;;;;;;;9.70;2.50;;;;;;;16.87;100.00;97117.47;4971363;28;20050;-81
2021/07/14 02:39:32;;;;;;;17.45;2.58;;;;;;;16.90;100.00;97119.47;4987182;28;20518;-82
2021/07/14 02:42:06;;;;;;;7.95;2.30;;;;;;;16.94;100.00;97132.03;4973133;28;20050;-80
2021/07/14 02:44:39;;;;;;;8.52;2.60;;;;;;;16.92;100.00;97128.09;5035501;23;20053;-82
2021/07/14 02:47:07;;;;;;;5.50;2.30;;;;;;;16.96;100.00;97139.84;5023927;28;20105;-79
2021/07/14 02:49:38;;;;;;;8.85;2.50;;;;;;;16.98;100.00;97145.75;5016043;28;20042;-80
2021/07/14 02:52:10;;;;;;;12.15;2.85;;;;;;;16.91;100.00;97134.69;5018234;28;20144;-82
2021/07/14 02:54:44;;;;;;;8.63;2.40;;;;;;;16.93;100.00;97127.69;4999933;28;20042;-82
2021/07/14 02:57:14;;;;;;;10.52;2.60;;;;;;;16.91;100.00;97112.81;5030860;23;20041;-82
2021/07/14 02:59:45;;;;;;;8.05;2.85;;;;;;;16.77;100.00;97113.41;5017102;28;20041;-82
2021/07/14 03:02:17;;;;;;;6.88;2.90;;;;;;;16.74;100.00;97114.16;5021122;28;20046;-81
2021/07/14 03:04:47;;;;;;;7.82;2.90;;;;;;;16.70;100.00;97114.09;5021287;28;20857;-83
2021/07/14 03:07:15;;;;;;;6.32;2.50;;;;;;;16.67;100.00;97106.59;5017692;28;20056;-83
2021/07/14 03:09:42;;;;;;;5.35;2.42;;;;;;;16.65;100.00;97111.66;5018355;28;20448;-83
2021/07/14 03:12:15;;;;;;;7.78;3.00;;;;;;;16.65;100.00;97117.13;5015875;28;20049;-83
2021/07/14 03:14:52;;;;;;;7.32;3.00;;;;;;;16.65;100.00;97111.66;5014931;28;20042;-83
2021/07/14 03:17:19;;;;;;;8.98;3.08;;;;;;;16.56;100.00;97119.34;5018039;28;20042;-82
2021/07/14 03:19:48;;;;;;;9.45;3.00;;;;;;;16.59;100.00;97126.81;5015854;28;20058;-82
2021/07/14 03:22:17;;;;;;;8.60;2.88;;;;;;;16.58;100.00;97136.16;5016217;28;20050;-82
2021/07/14 03:24:45;;;;;;;7.57;2.88;;;;;;;16.60;100.00;97124.84;5017608;28;20050;-81
2021/07/14 03:27:13;;;;;;;5.35;2.70;;;;;;;16.67;100.00;97120.28;5017451;28;21388;-83
2021/07/14 03:29:41;;;;;;;9.57;2.83;;;;;;;16.70;100.00;97110.56;5017627;28;20417;-83
2021/07/14 03:32:10;;;;;;;5.35;2.50;;;;;;;16.80;100.00;97127.13;5000813;28;20061;-82
2021/07/14 03:34:37;;;;;;;9.15;2.40;;;;;;;16.86;100.00;97126.81;5017175;28;20128;-83
2021/07/14 03:37:06;;;;;;;3.75;2.30;;;;;;;17.03;100.00;97124.34;5015623;28;20041;-82
2021/07/14 03:39:36;;;;;;;3.95;2.47;;;;;;;17.02;100.00;97120.03;5023513;28;20046;-83
2021/07/14 03:42:05;;;;;;;8.35;2.58;;;;;;;17.13;100.00;97134.66;5014810;28;20125;-83
2021/07/14 03:44:36;;;;;;;4.45;2.55;;;;;;;17.13;100.00;97121.00;5016119;28;20124;-83
2021/07/14 03:47:03;;;;;;;5.32;2.40;;;;;;;17.22;100.00;97112.47;5012659;28;20053;-83
2021/07/14 03:49:32;;;;;;;3.88;2.30;;;;;;;17.30;100.00;97109.47;5016088;28;20073;-84
2021/07/14 03:52:00;;;;;;;5.03;2.70;;;;;;;17.18;100.00;97125.34;5016784;28;20073;-83
2021/07/14 03:54:28;;;;;;;5.15;2.40;;;;;;;17.28;100.00;97117.28;5016243;28;20038;-84
2021/07/14 03:56:55;;;;;;;6.85;2.70;;;;;;;17.24;100.00;97118.41;5016145;28;20049;-84
2021/07/14 03:59:23;;;;;;;7.18;2.50;;;;;;;17.23;100.00;97108.59;5016439;28;20065;-83
2021/07/14 04:01:49;;;;;;;8.52;2.30;;;;;;;17.22;100.00;97124.22;5032102;28;20065;-83
2021/07/14 04:04:16;;;;;;;9.20;2.40;;;;;;;17.22;100.00;97134.38;5017855;28;20053;-84
2021/07/14 04:06:48;;;;;;;9.55;2.20;;;;;;;17.31;100.00;97143.09;5022075;28;20045;-85
2021/07/14 04:09:23;;;;;;;9.20;2.35;;;;;;;17.26;100.00;97146.16;5033734;28;20099;-80
2021/07/14 04:11:58;;;;;;;10.50;2.30;;;;;;;17.31;100.00;97151.31;5034248;28;20045;-83
2021/07/14 04:14:27;;;;;;;7.40;2.80;;;;;;;17.37;100.00;97149.81;5035768;28;20038;-83
2021/07/14 04:16:55;;;;;;;5.63;2.38;;;;;;;17.47;100.00;97148.41;5031962;28;20524;-83
2021/07/14 04:19:23;;;;;;;6.10;2.38;;;;;;;17.50;100.00;97142.19;5027584;28;20114;-84
2021/07/14 04:21:49;;;;;;;7.95;2.50;;;;;;;17.44;100.00;97141.72;5033922;28;20037;-82
2021/07/14 04:24:17;;;;;;;6.15;2.75;;;;;;;17.41;100.00;97137.78;5028805;28;20096;-79
2021/07/14 04:26:44;;;;;;;4.38;2.50;;;;;;;17.44;100.00;97126.09;5017323;28;20062;-83
2021/07/14 04:29:12;;;;;;;4.82;2.40;;;;;;;17.48;100.00;97125.31;5032757;28;20135;-82
2021/07/14 04:31:40;;;;;;;8.77;2.80;;;;;;;17.49;100.00;97140.59;5028523;28;20049;-85
2021/07/14 04:34:08;;;;;;;8.07;2.60;;;;;;;17.45;100.00;97140.53;5032874;28;20041;-80
2021/07/14 04:36:36;;;;;;;3.92;2.50;;;;;;;17.40;100.00;97149.88;5040877;28;20109;-83
2021/07/14 04:39:05;;;;;;;6.90;2.72;;;;;;;17.32;100.00;97145.47;5018766;28;20081;-81
2021/07/14 04:41:32;;;;;;;7.75;2.80;;;;;;;17.42;100.00;97155.00;5010862;28;20058;-81
2021/07/14 04:44:01;;;;;;;4.63;2.78;;;;;;;17.39;100.00;97153.75;5025889;28;20365;-81
2021/07/14 04:46:29;;;;;;;6.80;2.78;;;;;;;17.42;100.00;97153.03;5033996;28;20049;-81
2021/07/14 04:48:56;;;;;;;4.22;2.47;;;;;;;17.51;100.00;97163.69;5029924;28;20060;-81
2021/07/14 04:51:26;;;;;;;4.72;2.40;;;;;;;17.50;100.00;97161.34;5013033;28;20046;-83
2021/07/14 04:53:53;;;;;;;4.53;2.60;;;;;;;17.55;100.00;97150.88;5012940;28;20056;-82
2021/07/14 04:56:20;;;;;;;4.30;2.70;;;;;;;17.51;100.00;97147.28;5021192;28;20111;-83
2021/07/14 04:58:47;;;;;;;3.50;2.60;;;;;;;17.45;100.00;97163.22;5021164;28;20076;-83
2021/07/14 05:01:17;;;;;;;7.35;2.78;;;;;;;17.60;100.00;97156.00;5023128;28;20133;-84
2021/07/14 05:03:47;;;;;;;4.88;2.60;;;;;;;17.64;100.00;97156.88;5017784;28;20108;-85
2021/07/14 05:06:20;;;;;;;4.55;2.10;;;;;;;17.60;100.00;97156.00;5015139;28;20072;-86
2021/07/14 05:08:46;;;;;;;8.95;2.30;;;;;;;17.58;100.00;97141.13;5021290;28;20056;-86
2021/07/14 05:11:14;;;;;;;3.35;2.28;;;;;;;17.62;100.00;97141.97;5033718;28;20492;-85
2021/07/14 05:13:42;;;;;;;3.80;2.33;;;;;;;17.61;100.00;97157.59;5023238;28;20064;-87
2021/07/14 05:16:09;;;;;;;6.72;2.20;;;;;;;17.83;100.00;97169.63;5033046;28;20049;-84
2021/07/14 05:18:36;;;;;;;4.32;2.15;;;;;;;17.85;100.00;97170.81;5013258;28;20153;-87
2021/07/14 05:21:04;;;;;;;5.03;2.65;;;;;;;17.80;100.00;97184.06;5012309;28;20053;-88
2021/07/14 05:23:36;;;;;;;7.18;2.08;;;;;;;17.69;100.00;97162.00;5010303;28;20042;-86
2021/07/14 05:26:02;;;;;;;6.20;2.45;;;;;;;17.89;100.00;97157.16;5010349;28;20092;-85
2021/07/14 05:28:29;;;;;;;3.58;2.10;;;;;;;18.14;100.00;97157.44;5012060;28;20052;-84
2021/07/14 05:30:56;;;;;;;2.47;1.70;;;;;;;18.00;100.00;97171.78;5014076;28;20065;-80
2021/07/14 05:33:23;;;;;;;7.95;2.00;;;;;;;18.18;100.00;97174.69;5008664;28;22337;-79
2021/07/14 05:35:52;;;;;;;4.38;1.90;;;;;;;18.31;100.00;97156.81;5011911;28;20096;-80
2021/07/14 05:38:21;;;;;;;2.15;1.60;;;;;;;18.35;100.00;97152.94;5013710;28;20049;-80
2021/07/14 05:40:49;;;;;;;1.83;1.60;;;;;;;18.36;100.00;97156.47;5014393;28;20056;-79
2021/07/14 05:43:16;;;;;;;4.72;1.50;;;;;;;18.42;100.00;97149.50;5013751;28;20050;-78
2021/07/14 05:45:42;;;;;;;3.53;1.60;;;;;;;18.20;100.00;97142.22;5011613;28;20501;-81
2021/07/14 05:48:09;;;;;;;3.75;1.33;;;;;;;18.21;100.00;97133.66;5007940;28;20088;-77
2021/07/14 05:50:37;;;;;;;2.33;1.70;;;;;;;18.07;100.00;97121.75;5010817;28;20069;-78
2021/07/14 05:53:04;;;;;;;2.80;1.50;;;;;;;18.16;100.00;97114.81;5013433;28;20053;-79
2021/07/14 05:55:32;;;;;;;3.85;1.50;;;;;;;18.11;100.00;97106.13;5010592;28;20049;-79
2021/07/14 05:57:59;;;;;;;1.98;1.60;;;;;;;18.21;100.00;97113.66;4993638;28;20068;-78
2021/07/14 06:00:26;;;;;;;3.15;1.27;;;;;;;18.32;100.00;97101.66;5010827;28;20532;-79
2021/07/14 06:02:53;;;;;;;1.88;1.50;;;;;;;18.24;100.00;97105.50;5014074;28;20489;-79
2021/07/14 06:05:20;;;;;;;2.17;1.48;;;;;;;18.35;100.00;97105.59;5011500;28;20045;-78
2021/07/14 06:07:47;;;;;;;1.77;1.27;;;;;;;18.44;100.00;97098.63;5012469;28;20057;-81
2021/07/14 06:10:15;;;;;;;2.80;1.20;;;;;;;18.29;100.00;97112.59;5016638;28;20046;-80
2021/07/14 06:12:41;;;;;;;4.13;1.52;;;;;;;18.33;100.00;97127.88;5012051;28;20053;-78
2021/07/14 06:15:08;;;;;;;1.77;1.30;;;;;;;18.66;100.00;97130.56;5010274;28;20041;-77
2021/07/14 06:17:35;;;;;;;4.30;1.48;;;;;;;18.54;100.00;97154.72;5011320;28;20448;-77
2021/07/14 06:20:05;;;;;;;1.50;1.25;;;;;;;18.62;100.00;97148.94;5010600;28;20046;-78
2021/07/14 06:22:31;;;;;;;2.45;1.45;;;;;;;18.43;100.00;97140.91;5018125;28;20049;-81
2021/07/14 06:24:58;;;;;;;3.85;1.55;;;;;;;18.52;100.00;97127.72;5030496;28;20338;-81
2021/07/14 06:27:44;;;;;;;4.38;1.30;;;;;;;18.71;100.00;97129.44;5009808;28;20042;-79
2021/07/14 06:30:13;;;;;;;4.43;1.50;;;;;;;18.74;100.00;97125.16;5015247;28;20050;-79
2021/07/14 06:32:40;;;;;;;6.10;1.20;;;;;;;18.77;100.00;97113.38;5016013;28;20108;-79
2021/07/14 06:35:09;;;;;;;2.58;1.30;;;;;;;18.82;100.00;97110.28;5012584;28;20045;-79
2021/07/14 06:37:38;;;;;;;4.53;1.20;;;;;;;18.90;100.00;97111.91;5014410;28;20041;-80
2021/07/14 06:40:06;;;;;;;3.17;1.10;;;;;;;18.69;100.00;97112.56;5013558;28;20073;-80
2021/07/14 06:42:34;;;;;;;3.40;1.10;;;;;;;18.55;100.00;97116.00;5013055;28;20104;-88
2021/07/14 06:45:01;;;;;;;1.63;0.90;;;;;;;18.59;100.00;97118.75;5032466;28;20109;-87
2021/07/14 06:47:30;;;;;;;1.50;1.02;;;;;;;18.50;100.00;97123.78;5016365;28;20528;-84
2021/07/14 06:49:57;;;;;;;1.58;0.93;;;;;;;18.60;100.00;97132.09;5019750;28;20490;-87
2021/07/14 06:52:23;;;;;;;2.85;1.02;;;;;;;18.59;100.00;97126.97;5018256;28;20046;-87
2021/07/14 06:54:50;;;;;;;4.95;1.02;;;;;;;18.55;100.00;97137.13;5033509;28;20679;-85
2021/07/14 06:57:17;;;;;;;2.20;1.30;;;;;;;18.49;100.00;97124.94;5018114;28;20046;-87
2021/07/14 06:59:44;;;;;;;1.50;1.20;;;;;;;18.52;100.00;97133.19;5018072;28;20046;-83
2021/07/14 07:02:11;;;;;;;2.33;1.30;;;;;;;18.51;100.00;97141.78;5011525;28;20053;-87
2021/07/14 07:04:37;;;;;;;1.20;1.10;;;;;;;18.58;100.00;97137.13;5010654;28;20038;-83
2021/07/14 07:07:04;;;;;;;5.88;1.50;;;;;;;18.74;100.00;97130.63;5012200;28;20049;-86
2021/07/14 07:09:30;;;;;;;3.92;1.20;;;;;;;18.53;100.00;97142.97;5010461;28;20046;-81
2021/07/14 07:11:57;;;;;;;3.10;1.02;;;;;;;18.49;100.00;97147.66;5010182;28;20100;-81
2021/07/14 07:14:23;;;;;;;2.28;1.08;;;;;;;18.63;100.00;97161.47;5009666;28;20417;-82
2021/07/14 07:16:50;;;;;;;4.63;1.10;;;;;;;18.78;100.00;97156.91;5009934;28;20076;-81
2021/07/14 07:19:18;;;;;;;2.42;1.00;;;;;;;18.80;100.00;97162.00;5010780;28;20058;-82
2021/07/14 07:21:44;;;;;;;3.05;1.20;;;;;;;18.63;100.00;97147.75;5010018;28;20046;-82
2021/07/14 07:24:11;;;;;;;1.40;0.90;;;;;;;18.98;100.00;97152.75;5013185;28;20061;-81
2021/07/14 07:26:38;;;;;;;6.07;0.80;;;;;;;18.96;100.00;97146.84;5013691;28;20096;-82
2021/07/14 07:29:10;;;;;;;1.10;0.95;;;;;;;18.93;100.00;97127.63;5010833;28;20042;-81
2021/07/14 07:31:38;;;;;;;2.65;1.10;;;;;;;19.20;100.00;97129.75;5012138;28;20053;-83
2021/07/14 07:34:05;;;;;;;2.45;1.00;;;;;;;19.37;100.00;97135.72;5011074;28;20104;-81
2021/07/14 07:36:31;;;;;;;4.18;1.00;;;;;;;19.40;100.00;97119.31;5012189;28;20443;-81
2021/07/14 07:38:58;;;;;;;3.20;0.93;;;;;;;19.42;100.00;97114.22;5012374;28;20579;-81
2021/07/14 07:41:27;;;;;;;1.35;0.90;;;;;;;19.74;100.00;97123.38;5012013;28;20050;-83
2021/07/14 07:43:54;;;;;;;3.38;0.95;;;;;;;19.68;100.00;97119.44;5012827;28;20045;-82
2021/07/14 07:46:22;;;;;;;2.47;0.82;;;;;;;19.67;100.00;97137.09;5013235;28;20057;-81
2021/07/14 07:48:49;;;;;;;1.65;1.13;;;;;;;19.95;100.00;97143.88;5010925;28;20107;-81
2021/07/14 07:51:16;;;;;;;4.55;1.00;;;;;;;20.46;100.00;97133.41;5026043;28;20050;-81
2021/07/14 07:53:42;;;;;;;2.63;0.80;;;;;;;20.74;100.00;97116.91;5011401;28;20548;-83
2021/07/14 07:56:09;;;;;;;4.18;0.93;;;;;;;20.52;100.00;97110.63;5009713;28;20038;-80
2021/07/14 07:58:36;;;;;;;2.10;0.90;;;;;;;20.50;100.00;97107.47;5011483;28;20042;-82
2021/07/14 08:01:03;;;;;;;1.48;0.98;;;;;;;20.50;100.00;97115.75;5013103;28;20053;-83
2021/07/14 08:03:30;;;;;;;1.60;1.00;;;;;;;20.51;100.00;97138.53;5028627;28;20064;-83
2021/07/14 08:05:57;;;;;;;4.32;0.80;;;;;;;20.73;100.00;97147.56;5010186;28;20045;-83
2021/07/14 08:08:23;;;;;;;1.30;0.95;;;;;;;20.39;100.00;97158.94;5011327;28;20131;-82
2021/07/14 08:10:52;;;;;;;1.45;1.00;;;;;;;20.76;100.00;97160.53;5011650;28;20046;-84
2021/07/14 08:13:20;;;;;;;1.55;1.10;;;;;;;21.09;100.00;97147.19;5009475;28;20045;-82
2021/07/14 08:15:47;;;;;;;1.52;0.88;;;;;;;21.17;100.00;97136.16;5008825;28;20119;-84
2021/07/14 08:18:14;;;;;;;3.40;0.80;;;;;;;21.38;100.00;97133.38;5010343;28;20046;-82
2021/07/14 08:20:41;;;;;;;5.45;0.90;;;;;;;21.07;100.00;97112.97;5011329;28;20033;-81
2021/07/14 08:23:08;;;;;;;2.20;1.08;;;;;;;20.90;100.00;97113.78;5008246;28;20128;-81
2021/07/14 08:25:36;;;;;;;1.73;0.95;;;;;;;20.85;100.00;97111.41;5009971;28;20105;-81
2021/07/14 08:28:02;;;;;;;2.03;0.90;;;;;;;20.55;100.00;97116.50;5009393;28;20046;-80
2021/07/14 08:30:29;;;;;;;1.20;0.95;;;;;;;20.61;100.00;97136.97;5008200;28;20080;-82
2021/07/14 08:32:56;;;;;;;1.38;0.90;;;;;;;21.24;100.00;97130.66;5008858;28;20464;-79
2021/07/14 08:35:22;;;;;;;4.00;1.25;;;;;;;21.38;100.00;97134.16;5009363;28;20072;-80
2021/07/14 08:37:49;;;;;;;5.65;1.00;;;;;;;21.33;100.00;97128.25;5011584;28;20068;-82
2021/07/14 08:40:15;;;;;;;1.95;0.82;;;;;;;21.55;100.00;97119.53;5011721;28;20181;-81
2021/07/14 08:42:43;;;;;;;1.23;0.70;;;;;;;21.44;100.00;97135.34;5013162;28;20053;-80
2021/07/14 08:45:14;;;;;;;5.15;0.98;;;;;;;21.67;100.00;97119.13;5012905;28;20390;-81
2021/07/14 08:47:41;;;;;;;1.63;0.80;;;;;;;22.02;100.00;97107.16;5013846;28;20092;-82
2021/07/14 08:50:10;;;;;;;1.50;0.90;;;;;;;21.32;100.00;97127.47;5012996;28;20042;-82
2021/07/14 08:52:42;;;;;;;0.95;0.80;;;;;;;21.02;100.00;97136.16;5018078;28;20125;-83
2021/07/14 08:55:11;;;;;;;2.97;1.13;;;;;;;21.09;100.00;97154.66;5020323;28;20042;-82
2021/07/14 09:00:09;;;;;;;2.58;1.00;;;;;;;21.43;100.00;97153.03;5009034;28;20053;-83
2021/07/14 09:02:39;;;;;;;1.52;1.02;;;;;;;21.48;100.00;97176.63;5016233;28;20383;-84
2021/07/14 09:05:08;;;;;;;2.08;0.75;;;;;;;21.25;100.00;97201.06;5016384;28;20038;-84
2021/07/14 09:07:39;;;;;;;5.28;1.10;;;;;;;21.25;100.00;97207.34;5017234;28;20076;-85
2021/07/14 09:10:08;;;;;;;2.67;1.10;;;;;;;21.40;100.00;97219.13;5014894;28;20042;-82
2021/07/14 09:12:45;;;;;;;2.13;1.08;;;;;;;21.01;100.00;97227.38;5015895;28;20382;-84
2021/07/14 09:15:14;;;;;;;1.45;1.00;;;;;;;21.21;100.00;97227.81;5037495;28;20037;-83
2021/07/14 09:17:43;;;;;;;1.08;0.93;;;;;;;21.16;100.00;97219.94;5017878;28;20046;-82
2021/07/14 09:20:13;;;;;;;2.58;1.40;;;;;;;20.97;100.00;97213.63;5016585;28;20101;-83
2021/07/14 09:22:40;;;;;;;3.55;1.13;;;;;;;20.69;100.00;97202.59;5019041;28;20100;-84
2021/07/14 09:25:10;;;;;;;3.28;1.20;;;;;;;20.31;100.00;97226.06;5017434;28;20430;-82
2021/07/14 09:27:37;;;;;;;2.63;1.15;;;;;;;20.58;100.00;97209.25;5015557;28;20499;-82
2021/07/14 09:30:03;;;;;;;1.40;1.13;;;;;;;21.34;100.00;97199.47;5016351;28;20058;-84
2021/07/14 09:33:00;;;;;;;1.67;1.20;;;;;;;22.17;100.00;97196.88;5016245;28;20169;-82
2021/07/14 09:35:42;;;;;;;1.35;1.00;;;;;;;21.88;100.00;97198.19;5015917;28;20049;-85
2021/07/14 09:38:14;;;;;;;3.92;1.23;;;;;;;22.35;100.00;97197.56;5018736;28;20046;-85
2021/07/14 09:40:45;;;;;;;1.70;0.80;;;;;;;22.27;100.00;97179.50;5017051;28;20065;-85
2021/07/14 09:43:14;;;;;;;1.00;0.90;;;;;;;22.43;100.00;97181.00;5015792;28;20056;-84
2021/07/14 09:45:46;;;;;;;3.00;1.00;;;;;;;22.72;100.00;97188.72;5016680;28;20048;-84
2021/07/14 09:48:35;;;;;;;2.17;0.90;;;;;;;22.66;100.00;97195.06;5015988;28;20037;-85
2021/07/14 09:51:12;;;;;;;4.60;1.00;;;;;;;23.02;100.00;97187.31;5017069;28;20117;-85
2021/07/14 09:53:47;;;;;;;1.88;0.80;;;;;;;22.78;100.00;97194.59;5015448;28;20038;-85
2021/07/14 09:56:20;;;;;;;2.85;1.05;;;;;;;22.90;100.00;97202.38;5014010;28;20046;-82
2021/07/14 09:59:00;;;;;;;2.58;0.90;;;;;;;22.98;100.00;97190.09;5015004;28;20037;-85
2021/07/14 10:01:34;;;;;;;3.03;1.08;;;;;;;23.15;100.00;97207.72;5015356;28;20046;-84
2021/07/14 10:04:01;;;;;;;1.10;0.90;;;;;;;23.35;100.00;97205.97;5014657;28;20557;-83
2021/07/14 10:06:48;;;;;;;1.05;0.90;;;;;;;22.52;100.00;97217.97;5015841;28;20065;-85
2021/07/14 10:09:24;;;;;;;3.28;1.00;;;;;;;22.38;100.00;97220.81;5013951;28;20046;-85
2021/07/14 10:11:50;;;;;;;1.38;1.10;;;;;;;22.55;100.00;97208.13;5016675;28;20045;-84
2021/07/14 10:14:28;;;;;;;4.47;1.52;;;;;;;22.39;100.00;97211.34;5013544;28;20058;-84
2021/07/14 10:16:54;;;;;;;7.50;1.13;;;;;;;22.09;100.00;97191.81;5014312;28;20050;-84
2021/07/14 10:19:21;;;;;;;2.47;1.38;;;;;;;21.45;100.00;97183.72;5012782;28;20069;-84
2021/07/14 10:21:49;;;;;;;2.28;1.30;;;;;;;21.73;100.00;97160.81;5014181;28;20046;-84
2021/07/14 10:24:19;;;;;;;6.38;1.20;;;;;;;21.66;100.00;97180.91;5015253;28;20065;-84
2021/07/14 10:26:50;;;;;;;2.83;1.40;;;;;;;22.05;100.00;97196.53;5015779;28;20050;-85
2021/07/14 10:29:20;;;;;;;1.75;1.40;;;;;;;22.04;100.00;97214.28;5013656;28;20049;-85
2021/07/14 10:31:50;;;;;;;2.58;1.25;;;;;;;22.40;100.00;97223.19;5016789;28;20060;-84
2021/07/14 10:34:20;;;;;;;3.08;1.45;;;;;;;22.62;100.00;97200.59;5015672;28;20140;-83
2021/07/14 10:36:51;;;;;;;2.15;1.50;;;;;;;21.94;100.00;97187.56;5014230;28;20089;-82
2021/07/14 10:39:21;;;;;;;3.15;1.25;;;;;;;21.54;100.00;97186.06;5010610;28;20092;-83
2021/07/14 10:41:48;;;;;;;3.70;1.35;;;;;;;21.81;100.00;97198.16;5011943;28;20096;-83
2021/07/14 10:44:19;;;;;;;2.28;1.60;;;;;;;22.18;100.00;97208.69;5010473;28;20041;-82
2021/07/14 10:46:46;;;;;;;8.93;1.20;;;;;;;22.99;100.00;97211.00;5011832;28;20049;-84
2021/07/14 10:49:13;;;;;;;3.05;1.13;;;;;;;23.82;100.00;97207.84;5018755;28;20578;-84
2021/07/14 10:51:44;;;;;;;2.75;1.50;;;;;;;25.18;100.00;97200.88;5016616;28;20104;-84
2021/07/14 10:54:12;;;;;;;1.52;1.10;;;;;;;26.07;100.00;97202.06;5019746;28;20042;-83
2021/07/14 10:56:42;;;;;;;5.53;1.20;;;;;;;25.43;100.00;97211.53;5012690;28;20065;-83
2021/07/14 10:59:10;;;;;;;2.38;1.15;;;;;;;27.01;100.00;97203.97;5013140;28;20049;-84
2021/07/14 11:01:49;;;;;;;2.67;1.08;;;;;;;25.78;100.00;97199.81;5014688;28;20046;-85
2021/07/14 11:04:25;;;;;;;4.03;1.20;;;;;;;23.74;100.00;97198.09;5014315;28;20057;-84
2021/07/14 11:06:56;;;;;;;;;;;;;;;22.82;100.00;97201.66;5012863;28;20099;-83
2021/07/14 11:09:38;;;;;;;3.00;1.45;;;;;;;22.46;100.00;97205.00;5011396;28;19972;-84
2021/07/14 11:12:12;;;;;;;1.63;1.20;;;;;;;22.59;100.00;97222.66;5013941;28;20060;-83
2021/07/14 11:14:41;;;;;;;4.18;1.40;;;;;;;23.69;100.00;97219.88;5010354;28;20576;-83
2021/07/14 11:17:10;;;;;;;1.23;0.93;;;;;;;23.08;100.00;97211.31;5012652;28;20049;-81
2021/07/14 11:20:05;;;;;;;1.58;1.15;;;;;;;23.32;100.00;97228.88;5010648;28;20050;-83
2021/07/14 11:22:39;;;;;;;1.10;1.00;;;;;;;23.10;100.00;97233.78;5010794;28;20049;-81
2021/07/14 11:25:21;;;;;;;2.83;1.00;;;;;;;25.58;100.00;97234.28;5013332;28;20042;-83
2021/07/14 11:27:53;;;;;;;3.05;1.10;;;;;;;25.68;100.00;97233.31;5011959;28;20454;-83
2021/07/14 11:30:28;;;;;;;1.35;1.10;;;;;;;26.47;100.00;97221.06;5012327;28;20103;-83
2021/07/14 11:32:56;;;;;;;;;;;;;;;26.17;100.00;97235.16;5014376;28;20041;-84
2021/07/14 11:35:36;;;;;;;2.65;0.90;;;;;;;26.49;100.00;97217.84;5009873;28;19925;-83
2021/07/14 11:38:04;;;;;;;4.40;1.02;;;;;;;25.91;100.00;97211.84;5012906;28;20119;-84
2021/07/14 11:40:35;;;;;;;4.80;0.88;;;;;;;25.68;100.00;97231.31;5010207;28;20489;-83
2021/07/14 11:43:03;;;;;;;1.75;0.90;;;;;;;26.41;100.00;97220.00;5013656;28;20466;-83
2021/07/14 11:45:33;;;;;;;2.75;1.15;;;;;;;27.08;100.00;97218.50;5011748;28;20256;-84